map of KOV home
KOV - Airport
Location
City:  Kokshetau, Aqmola, Kazakhstan
Near (Alt.):Kokchetav Trofimovka
Name:Kokshetau Airport
ICAO:UACK
IATA:KOV

Details
Type:Airport (Aerodrome, Airfield)
Use:Public/Civil
Latitude:5319'48"N (53.330000)
Longitude:6935'48"E (69.596667)
Elevation:886 ft (270 m)
Variation:11.68E (WMM2015 magnetic declination)
0.06 annual change
Runways:1
Longest:9350 × 148 ft (2850 × 45 m), paved

Weather
METAR:UACK 211000Z 30006MPS 9999 DRSN BKN017 M07/M08 Q1016 R20/820245 NOSIG RMK QFE738/0985

Related Locations
Nearby:
Farthest:PNT: 10854 mi / 17467 km
Puerto Natales [Teniente Julio Gallardo], MA, CL

Find:

   beyond  
but within

Other Information
Maps:
NOTAMs:
Links:
Sources:

  
  • flag of Kazakhstan
  

Sectional Chart

Flight Planning
at skyvector.com

Satellite Image

Google Maps Satellite view

 

Copyright © 2004-2019 Karl L. Swartz. All rights reserved.
The Great Circle Mapper name and logo are trademarks of the Great Circle Mapper.
All other trademarks mentioned herein belong to their respective owners.
Please see credits for attibutions and further copyright information.

  Follow gcmap on Facebook Follow gcmap on Twitter Follow gcmap on Google+ GCmap on LinkedIn

hCard Microformat

Geo Microformat